createdAt,value
2023-04-27T00:01:12.665Z,13.40
2023-04-27T00:03:40.074Z,13.38
2023-04-27T00:06:08.434Z,13.37
2023-04-27T00:08:35.441Z,13.35
2023-04-27T00:11:02.375Z,13.30
2023-04-27T00:13:29.262Z,13.28
2023-04-27T00:15:56.491Z,13.27
2023-04-27T00:18:23.346Z,13.26
2023-04-27T00:20:50.115Z,13.25
2023-04-27T00:23:16.993Z,13.22
2023-04-27T00:25:43.752Z,13.19
2023-04-27T00:28:10.801Z,13.20
2023-04-27T00:30:37.883Z,13.21
2023-04-27T00:33:04.692Z,13.20
2023-04-27T00:35:34.793Z,13.20
2023-04-27T00:38:01.740Z,13.20
2023-04-27T00:40:28.773Z,13.20
2023-04-27T00:42:55.724Z,13.20
2023-04-27T00:45:22.748Z,13.20
2023-04-27T00:47:49.842Z,13.19
2023-04-27T00:50:19.326Z,13.19
2023-04-27T00:52:46.167Z,13.17
2023-04-27T00:55:13.067Z,13.17
2023-04-27T00:57:40.462Z,13.17
2023-04-27T01:00:07.556Z,13.17
2023-04-27T01:02:34.935Z,13.17
2023-04-27T01:05:02.096Z,13.17
2023-04-27T01:07:29.315Z,13.18
2023-04-27T01:09:57.127Z,13.19
2023-04-27T01:12:23.867Z,13.18
2023-04-27T01:14:50.915Z,13.17
2023-04-27T01:17:18.410Z,13.15
2023-04-27T01:19:45.316Z,13.14
2023-04-27T01:22:12.362Z,13.14
2023-04-27T01:24:39.204Z,13.15
2023-04-27T01:27:06.457Z,13.17
2023-04-27T01:29:33.303Z,13.17
2023-04-27T01:32:00.044Z,13.19
2023-04-27T01:34:26.983Z,13.19
2023-04-27T01:36:53.706Z,13.19
2023-04-27T01:39:21.700Z,13.20
2023-04-27T01:41:48.591Z,13.21
2023-04-27T01:44:15.485Z,13.21
2023-04-27T01:46:42.350Z,13.22
2023-04-27T01:49:09.283Z,13.22
2023-04-27T01:51:36.019Z,13.22
2023-04-27T01:54:02.958Z,13.22
2023-04-27T01:56:29.801Z,13.21
2023-04-27T01:58:56.684Z,13.21
2023-04-27T02:01:24.457Z,13.20
2023-04-27T02:03:51.988Z,13.20
2023-04-27T02:06:19.120Z,13.19
2023-04-27T02:08:46.493Z,13.18
2023-04-27T02:11:13.417Z,13.18
2023-04-27T02:13:40.567Z,13.17
2023-04-27T02:16:07.829Z,13.15
2023-04-27T02:18:36.400Z,13.14
2023-04-27T02:21:08.214Z,13.12
2023-04-27T02:23:36.828Z,13.11
2023-04-27T02:26:03.788Z,13.11
2023-04-27T02:28:31.021Z,13.11
2023-04-27T02:30:58.398Z,13.11
2023-04-27T02:33:25.318Z,13.11
2023-04-27T02:35:52.065Z,13.10
2023-04-27T02:38:19.135Z,13.11
2023-04-27T02:40:45.978Z,13.10
2023-04-27T02:43:12.928Z,13.07
2023-04-27T02:45:39.881Z,13.04
2023-04-27T02:48:07.150Z,13.01
2023-04-27T02:50:34.256Z,12.97
2023-04-27T02:53:01.517Z,12.94
2023-04-27T02:55:29.996Z,12.92
2023-04-27T02:57:56.780Z,12.92
2023-04-27T03:00:24.087Z,12.90
2023-04-27T03:02:51.320Z,12.88
2023-04-27T03:05:18.586Z,12.87
2023-04-27T03:07:45.426Z,12.87
2023-04-27T03:10:12.368Z,12.88
2023-04-27T03:12:39.121Z,12.90
2023-04-27T03:15:06.166Z,12.90
2023-04-27T03:17:33.140Z,12.88
2023-04-27T03:20:00.115Z,12.84
2023-04-27T03:22:27.103Z,12.82
2023-04-27T03:24:54.043Z,12.83
2023-04-27T03:27:21.208Z,12.83
2023-04-27T03:29:51.950Z,12.84
2023-04-27T03:32:18.871Z,12.87
2023-04-27T03:34:45.610Z,12.89
2023-04-27T03:37:12.566Z,12.91
2023-04-27T03:39:39.468Z,12.96
2023-04-27T03:42:06.344Z,12.98
2023-04-27T03:44:33.801Z,13.01
2023-04-27T03:47:01.880Z,13.04
2023-04-27T03:49:29.019Z,13.05
2023-04-27T03:51:56.479Z,13.00
2023-04-27T03:54:23.220Z,12.94
2023-04-27T03:56:50.048Z,12.91
2023-04-27T03:59:17.520Z,12.86
2023-04-27T04:01:49.368Z,12.76
2023-04-27T04:04:16.969Z,12.65
2023-04-27T04:06:43.786Z,12.54
2023-04-27T04:09:12.966Z,12.45
2023-04-27T04:11:40.200Z,12.38
2023-04-27T04:14:07.790Z,12.31
2023-04-27T04:16:34.657Z,12.29
2023-04-27T04:19:01.797Z,12.26
2023-04-27T04:21:28.671Z,12.25
2023-04-27T04:23:56.597Z,12.24
2023-04-27T04:26:23.664Z,12.24
2023-04-27T04:28:50.567Z,12.24
2023-04-27T04:31:18.523Z,12.24
2023-04-27T04:33:45.493Z,12.24
2023-04-27T04:36:15.209Z,12.23
2023-04-27T04:38:42.052Z,12.23
2023-04-27T04:41:10.747Z,12.21
2023-04-27T04:43:37.780Z,12.19
2023-04-27T04:46:06.583Z,12.18
2023-04-27T04:48:34.761Z,12.17
2023-04-27T04:51:01.690Z,12.16
2023-04-27T04:53:29.352Z,12.16
2023-04-27T04:55:56.620Z,12.15
2023-04-27T04:58:23.455Z,12.14
2023-04-27T05:00:50.646Z,12.12
2023-04-27T05:03:17.840Z,12.11
2023-04-27T05:05:44.902Z,12.09
2023-04-27T05:08:11.838Z,12.08
2023-04-27T05:10:38.682Z,12.08
2023-04-27T05:13:07.046Z,12.08
2023-04-27T05:15:34.312Z,12.09
2023-04-27T05:18:01.205Z,12.09
2023-04-27T05:20:28.079Z,12.09
2023-04-27T05:22:54.842Z,12.09
2023-04-27T05:25:21.683Z,12.10
2023-04-27T05:27:48.454Z,12.10
2023-04-27T05:30:15.372Z,12.10
2023-04-27T05:32:42.273Z,12.10
2023-04-27T05:35:09.997Z,12.07
2023-04-27T05:37:36.929Z,12.03
2023-04-27T05:40:06.106Z,12.00
2023-04-27T05:42:33.002Z,11.96
2023-04-27T05:44:59.919Z,11.94
2023-04-27T05:47:26.916Z,11.92
2023-04-27T05:49:53.853Z,11.88
2023-04-27T05:52:21.161Z,11.86
2023-04-27T05:54:48.514Z,11.84
2023-04-27T05:57:15.349Z,11.81
2023-04-27T05:59:42.432Z,11.79
2023-04-27T06:02:09.358Z,11.78
2023-04-27T06:04:37.355Z,11.72
2023-04-27T06:07:11.245Z,11.67
2023-04-27T06:09:38.114Z,11.66
2023-04-27T06:12:05.624Z,11.64
2023-04-27T06:14:32.909Z,11.63
2023-04-27T06:16:59.785Z,11.63
2023-04-27T06:19:26.892Z,11.63
2023-04-27T06:21:54.541Z,11.62
2023-04-27T06:24:21.653Z,11.60
2023-04-27T06:26:51.596Z,11.59
2023-04-27T06:29:18.560Z,11.59
2023-04-27T06:31:45.503Z,11.61
2023-04-27T06:34:12.337Z,11.60
2023-04-27T06:36:39.263Z,11.59
2023-04-27T06:39:06.557Z,11.61
2023-04-27T06:41:34.097Z,11.62
2023-04-27T06:44:01.062Z,11.64
2023-04-27T06:46:27.993Z,11.66
2023-04-27T06:48:54.842Z,11.68
2023-04-27T06:51:21.653Z,11.68
2023-04-27T06:53:48.394Z,11.68
2023-04-27T06:56:15.332Z,11.69
2023-04-27T06:58:42.077Z,11.71
2023-04-27T07:01:08.948Z,11.71
2023-04-27T07:03:36.969Z,11.70
2023-04-27T07:06:04.355Z,11.69
2023-04-27T07:08:31.288Z,11.66
2023-04-27T07:10:58.456Z,11.65
2023-04-27T07:13:25.386Z,11.65
2023-04-27T07:15:58.000Z,11.66
2023-04-27T07:18:26.033Z,11.67
2023-04-27T07:20:52.991Z,11.67
2023-04-27T07:23:19.767Z,11.66
2023-04-27T07:25:46.657Z,11.67
2023-04-27T07:28:13.620Z,11.69
2023-04-27T07:30:41.695Z,11.72
2023-04-27T07:33:10.171Z,11.72
2023-04-27T07:35:37.274Z,11.76
2023-04-27T07:38:04.151Z,11.81
2023-04-27T07:40:31.020Z,11.83
2023-04-27T07:42:58.413Z,11.86
2023-04-27T07:45:32.008Z,11.89
2023-04-27T07:48:00.309Z,11.91
2023-04-27T07:50:28.703Z,11.90
2023-04-27T07:52:56.176Z,11.90
2023-04-27T07:55:23.640Z,11.91
2023-04-27T07:57:50.887Z,11.91
2023-04-27T08:00:18.060Z,11.92
2023-04-27T08:02:45.366Z,11.92
2023-04-27T08:05:12.739Z,11.90
2023-04-27T08:07:44.502Z,11.90
2023-04-27T08:10:12.129Z,11.88
2023-04-27T08:12:39.001Z,11.85
2023-04-27T08:15:06.104Z,11.85
2023-04-27T08:17:33.008Z,11.87
2023-04-27T08:19:59.922Z,11.90
2023-04-27T08:22:26.761Z,11.93
2023-04-27T08:24:53.531Z,11.95
2023-04-27T08:27:20.557Z,11.97
2023-04-27T08:29:48.047Z,11.96
2023-04-27T08:32:15.060Z,11.94
2023-04-27T08:34:42.221Z,11.94
2023-04-27T08:37:09.155Z,11.96
2023-04-27T08:39:36.099Z,11.98
2023-04-27T08:42:10.156Z,11.98
2023-04-27T08:44:40.687Z,12.00
2023-04-27T08:47:08.954Z,12.01
2023-04-27T08:49:38.424Z,12.01
2023-04-27T08:52:11.136Z,12.00
2023-04-27T08:54:38.050Z,11.99
2023-04-27T08:57:14.518Z,11.98
2023-04-27T08:59:41.460Z,11.94
2023-04-27T09:02:18.424Z,11.87
2023-04-27T09:04:45.464Z,11.76
2023-04-27T09:07:12.360Z,11.68
2023-04-27T09:09:39.469Z,11.65
2023-04-27T09:12:27.047Z,11.66
2023-04-27T09:14:57.740Z,11.67
2023-04-27T09:17:25.252Z,11.69
2023-04-27T09:19:52.176Z,11.71
2023-04-27T09:22:18.933Z,11.73
2023-04-27T09:24:52.587Z,11.72
2023-04-27T09:27:20.097Z,11.67
2023-04-27T09:29:46.865Z,11.64
2023-04-27T09:32:17.560Z,11.64
2023-04-27T09:34:44.713Z,11.65
2023-04-27T09:37:11.682Z,11.65
2023-04-27T09:39:38.780Z,11.65
2023-04-27T09:42:05.686Z,11.66
2023-04-27T09:44:32.826Z,11.68
2023-04-27T09:47:00.640Z,11.71
2023-04-27T09:49:28.610Z,11.73
2023-04-27T09:51:57.000Z,11.75
2023-04-27T09:54:24.063Z,11.78
2023-04-27T09:56:53.955Z,11.79
2023-04-27T09:59:30.024Z,11.81
2023-04-27T10:01:57.239Z,11.84
2023-04-27T10:04:37.074Z,11.86
2023-04-27T10:07:12.768Z,11.84
2023-04-27T10:09:43.413Z,11.76
2023-04-27T10:12:14.332Z,11.71
2023-04-27T10:14:51.489Z,11.71
2023-04-27T10:17:18.392Z,11.72
2023-04-27T10:19:57.330Z,11.74
2023-04-27T10:22:25.228Z,11.75
2023-04-27T10:24:52.179Z,11.76
2023-04-27T10:27:24.254Z,11.78
2023-04-27T10:29:51.195Z,11.81
2023-04-27T10:32:23.218Z,11.85
2023-04-27T10:35:04.157Z,11.91
2023-04-27T10:37:43.211Z,11.92
2023-04-27T10:40:10.771Z,11.94
2023-04-27T10:42:37.554Z,11.95
2023-04-27T10:45:04.735Z,11.98
2023-04-27T10:47:39.379Z,12.01
2023-04-27T10:50:07.400Z,12.03
2023-04-27T10:52:34.350Z,12.04
2023-04-27T10:55:14.648Z,12.03
2023-04-27T10:57:52.090Z,12.01
2023-04-27T11:00:26.204Z,11.95
2023-04-27T11:02:54.079Z,11.90
2023-04-27T11:05:23.535Z,11.90
2023-04-27T11:07:51.074Z,11.91
2023-04-27T11:10:19.013Z,11.92
2023-04-27T11:12:46.210Z,11.89
2023-04-27T11:15:14.110Z,11.87
2023-04-27T11:17:41.734Z,11.86
2023-04-27T11:20:09.018Z,11.86
2023-04-27T11:22:46.164Z,11.88
2023-04-27T11:25:13.157Z,11.83
2023-04-27T11:27:40.525Z,11.79
2023-04-27T11:30:18.323Z,11.76
2023-04-27T11:32:45.200Z,11.74
2023-04-27T11:35:11.999Z,11.73
2023-04-27T11:37:39.050Z,11.74
2023-04-27T11:40:06.313Z,11.74
2023-04-27T11:42:33.239Z,11.76
2023-04-27T11:45:01.427Z,11.76
2023-04-27T11:47:28.916Z,11.77
2023-04-27T11:49:56.539Z,11.78
2023-04-27T11:52:27.927Z,11.75
2023-04-27T11:54:56.627Z,11.71
2023-04-27T11:57:29.626Z,11.62
2023-04-27T11:59:57.225Z,11.53
2023-04-27T12:02:24.281Z,11.45
2023-04-27T12:04:51.732Z,11.37
2023-04-27T12:07:18.976Z,11.32
2023-04-27T12:09:46.143Z,11.26
2023-04-27T12:12:14.135Z,11.22
2023-04-27T12:14:41.460Z,11.20
2023-04-27T12:17:08.399Z,11.18
2023-04-27T12:19:37.102Z,11.17
2023-04-27T12:22:04.539Z,11.16
2023-04-27T12:24:31.509Z,11.14
2023-04-27T12:26:58.673Z,11.13
2023-04-27T12:29:25.814Z,11.11
2023-04-27T12:31:53.437Z,11.09
2023-04-27T12:34:20.387Z,11.08
2023-04-27T12:36:47.392Z,11.00
2023-04-27T12:39:21.096Z,10.93
2023-04-27T12:41:48.119Z,10.89
2023-04-27T12:44:15.131Z,10.88
2023-04-27T12:46:42.832Z,10.89
2023-04-27T12:49:09.988Z,10.90
2023-04-27T12:51:37.000Z,10.92
2023-04-27T12:54:04.317Z,10.91
2023-04-27T12:56:31.220Z,10.88
2023-04-27T12:58:58.129Z,10.85
2023-04-27T13:01:26.372Z,10.83
2023-04-27T13:03:53.907Z,10.83
2023-04-27T13:06:22.902Z,10.84
2023-04-27T13:08:49.888Z,10.86
2023-04-27T13:11:17.096Z,10.87
2023-04-27T13:13:44.221Z,10.87
2023-04-27T13:16:12.096Z,10.88
2023-04-27T13:18:40.263Z,10.88
2023-04-27T13:21:07.684Z,10.89
2023-04-27T13:23:34.429Z,10.90
2023-04-27T13:26:01.682Z,10.92
2023-04-27T13:28:28.530Z,10.93
2023-04-27T13:30:55.780Z,10.89
2023-04-27T13:33:23.797Z,10.83
2023-04-27T13:35:51.427Z,10.78
2023-04-27T13:38:18.312Z,10.76
2023-04-27T13:40:45.217Z,10.76
2023-04-27T13:43:12.042Z,10.73
2023-04-27T13:45:39.913Z,10.65
2023-04-27T13:48:07.081Z,10.62
2023-04-27T13:50:33.911Z,10.64
2023-04-27T13:53:01.984Z,10.67
2023-04-27T13:55:28.824Z,10.69
2023-04-27T13:57:55.762Z,10.70
2023-04-27T14:00:22.718Z,10.69
2023-04-27T14:02:49.649Z,10.69
2023-04-27T14:05:16.482Z,10.69
2023-04-27T14:07:43.217Z,10.70
2023-04-27T14:10:10.138Z,10.70
2023-04-27T14:12:37.148Z,10.71
2023-04-27T14:15:04.347Z,10.70
2023-04-27T14:17:31.282Z,10.67
2023-04-27T14:19:58.264Z,10.68
2023-04-27T14:22:25.052Z,10.70
2023-04-27T14:24:52.261Z,10.73
2023-04-27T14:27:19.301Z,10.74
2023-04-27T14:29:46.050Z,10.74
2023-04-27T14:32:13.002Z,10.75
2023-04-27T14:34:39.930Z,10.75
2023-04-27T14:37:06.729Z,10.73
2023-04-27T14:39:33.945Z,10.72
2023-04-27T14:42:00.775Z,10.72
2023-04-27T14:44:27.717Z,10.74
2023-04-27T14:46:54.590Z,10.75
2023-04-27T14:49:21.818Z,10.75
2023-04-27T14:51:48.647Z,10.76
2023-04-27T14:54:15.495Z,10.76
2023-04-27T14:56:42.663Z,10.75
2023-04-27T14:59:09.518Z,10.75
2023-04-27T15:01:37.161Z,10.77
2023-04-27T15:04:04.289Z,10.77
2023-04-27T15:06:31.393Z,10.74
2023-04-27T15:08:58.198Z,10.72
2023-04-27T15:11:25.081Z,10.69
2023-04-27T15:13:52.187Z,10.66
2023-04-27T15:16:20.197Z,10.67
2023-04-27T15:18:47.269Z,10.69
2023-04-27T15:21:25.482Z,10.71
2023-04-27T15:23:52.551Z,10.72
2023-04-27T15:26:19.499Z,10.68
2023-04-27T15:28:46.446Z,10.62
2023-04-27T15:31:13.987Z,10.58
2023-04-27T15:33:41.048Z,10.56
2023-04-27T15:36:07.990Z,10.54
2023-04-27T15:38:34.719Z,10.51
2023-04-27T15:41:01.512Z,10.49
2023-04-27T15:43:28.443Z,10.46
2023-04-27T15:45:55.679Z,10.45
2023-04-27T15:48:22.517Z,10.46
2023-04-27T15:50:49.346Z,10.45
2023-04-27T15:53:16.232Z,10.43
2023-04-27T15:55:43.475Z,10.42
2023-04-27T15:58:10.273Z,10.42
2023-04-27T16:00:37.161Z,10.41
2023-04-27T16:03:04.395Z,10.38
2023-04-27T16:05:31.344Z,10.38
2023-04-27T16:07:58.392Z,10.39
2023-04-27T16:10:25.405Z,10.41
2023-04-27T16:12:52.188Z,10.42
2023-04-27T16:15:19.051Z,10.42
2023-04-27T16:17:45.997Z,10.43
2023-04-27T16:20:13.005Z,10.44
2023-04-27T16:22:40.022Z,10.45
2023-04-27T16:25:10.821Z,10.44
2023-04-27T16:27:38.558Z,10.44
2023-04-27T16:30:06.644Z,10.43
2023-04-27T16:32:35.407Z,10.43
2023-04-27T16:35:03.121Z,10.40
2023-04-27T16:37:30.220Z,10.35
2023-04-27T16:40:01.305Z,10.30
2023-04-27T16:42:28.719Z,10.26
2023-04-27T16:44:55.971Z,10.25
2023-04-27T16:47:22.975Z,10.24
2023-04-27T16:49:49.743Z,10.24
2023-04-27T16:52:17.219Z,10.23
2023-04-27T16:54:44.147Z,10.20
2023-04-27T16:57:11.029Z,10.18
2023-04-27T16:59:37.836Z,10.17
2023-04-27T17:02:16.890Z,10.17
2023-04-27T17:04:48.556Z,10.17
2023-04-27T17:07:15.771Z,10.16
2023-04-27T17:09:42.815Z,10.12
2023-04-27T17:12:13.429Z,10.05
2023-04-27T17:14:40.287Z,10.03
2023-04-27T17:17:07.466Z,10.03
2023-04-27T17:19:34.280Z,9.99
2023-04-27T17:22:01.070Z,9.95
2023-04-27T17:24:28.102Z,9.94
2023-04-27T17:26:54.876Z,9.94
2023-04-27T17:29:21.911Z,9.92
2023-04-27T17:31:50.279Z,9.90
2023-04-27T17:34:17.313Z,9.91
2023-04-27T17:36:44.240Z,9.88
2023-04-27T17:39:13.193Z,9.86
2023-04-27T17:41:40.510Z,9.86
2023-04-27T17:44:07.346Z,9.87
2023-04-27T17:46:34.343Z,9.89
2023-04-27T17:49:01.428Z,9.89
2023-04-27T17:51:31.023Z,9.88
2023-04-27T17:53:57.786Z,9.87
2023-04-27T17:56:24.726Z,9.87
2023-04-27T17:58:51.650Z,9.87
2023-04-27T18:01:18.577Z,9.87
2023-04-27T18:03:45.730Z,9.88
2023-04-27T18:06:12.745Z,9.89
2023-04-27T18:08:39.533Z,9.89
2023-04-27T18:11:07.017Z,9.90
2023-04-27T18:13:33.833Z,9.89
2023-04-27T18:16:00.657Z,9.90
2023-04-27T18:18:27.978Z,9.92
2023-04-27T18:20:54.911Z,9.93
2023-04-27T18:23:21.732Z,9.95
2023-04-27T18:25:48.871Z,9.94
2023-04-27T18:28:15.706Z,9.90
2023-04-27T18:30:42.484Z,9.87
2023-04-27T18:33:09.572Z,9.83
2023-04-27T18:35:36.615Z,9.79
2023-04-27T18:38:03.701Z,9.71
2023-04-27T18:40:30.842Z,9.66
2023-04-27T18:42:57.708Z,9.65
2023-04-27T18:45:24.509Z,9.66
2023-04-27T18:47:51.781Z,9.68
2023-04-27T18:50:19.307Z,9.67
2023-04-27T18:52:46.187Z,9.69
2023-04-27T18:55:14.447Z,9.71
2023-04-27T18:57:41.433Z,9.68
2023-04-27T19:00:09.299Z,9.61
2023-04-27T19:02:36.351Z,9.58
2023-04-27T19:05:12.979Z,9.56
2023-04-27T19:07:40.833Z,9.57
2023-04-27T19:10:08.248Z,9.58
2023-04-27T19:12:35.456Z,9.59
2023-04-27T19:15:02.614Z,9.59
2023-04-27T19:17:29.756Z,9.59
2023-04-27T19:19:56.928Z,9.61
2023-04-27T19:22:24.164Z,9.61
2023-04-27T19:24:51.003Z,9.62
2023-04-27T19:27:18.026Z,9.65
2023-04-27T19:29:54.560Z,9.67
2023-04-27T19:32:21.880Z,9.67
2023-04-27T19:34:48.733Z,9.66
2023-04-27T19:37:16.182Z,9.65
2023-04-27T19:39:43.072Z,9.67
2023-04-27T19:42:09.979Z,9.66
2023-04-27T19:44:36.810Z,9.67
2023-04-27T19:47:03.730Z,9.67
2023-04-27T19:49:31.104Z,9.65
2023-04-27T19:51:58.335Z,9.66
2023-04-27T19:54:25.160Z,9.67
2023-04-27T19:56:52.258Z,9.67
2023-04-27T19:59:19.180Z,9.59
2023-04-27T20:01:46.788Z,9.49
2023-04-27T20:04:14.296Z,9.47
2023-04-27T20:06:43.433Z,9.50
2023-04-27T20:09:10.370Z,9.53
2023-04-27T20:11:37.186Z,9.56
2023-04-27T20:14:03.957Z,9.59
2023-04-27T20:16:31.486Z,9.63
2023-04-27T20:18:58.463Z,9.63
2023-04-27T20:21:25.375Z,9.62
2023-04-27T20:23:52.167Z,9.61
2023-04-27T20:26:18.962Z,9.61
2023-04-27T20:28:45.900Z,9.61
2023-04-27T20:31:12.709Z,9.61
2023-04-27T20:33:39.470Z,9.58
2023-04-27T20:36:16.185Z,9.55
2023-04-27T20:38:44.488Z,9.53
2023-04-27T20:41:12.516Z,9.52
2023-04-27T20:43:40.304Z,9.54
2023-04-27T20:46:07.676Z,9.56
2023-04-27T20:48:34.778Z,9.57
2023-04-27T20:51:01.756Z,9.55
2023-04-27T20:53:28.597Z,9.51
2023-04-27T20:55:55.402Z,9.49
2023-04-27T20:58:22.459Z,9.43
2023-04-27T21:00:49.336Z,9.42
2023-04-27T21:03:16.443Z,9.42
2023-04-27T21:05:44.224Z,9.42
2023-04-27T21:08:11.275Z,9.42
2023-04-27T21:10:38.082Z,9.41
2023-04-27T21:13:04.817Z,9.40
2023-04-27T21:15:32.105Z,9.40
2023-04-27T21:17:59.353Z,9.37
2023-04-27T21:20:26.517Z,9.36
2023-04-27T21:22:53.328Z,9.37
2023-04-27T21:25:21.706Z,9.34
2023-04-27T21:27:50.390Z,9.30
2023-04-27T21:30:17.143Z,9.29
2023-04-27T21:32:44.022Z,9.24
2023-04-27T21:35:11.242Z,9.23
2023-04-27T21:37:38.184Z,9.24
2023-04-27T21:40:06.185Z,9.23
2023-04-27T21:42:32.979Z,9.21
2023-04-27T21:44:59.777Z,9.22
2023-04-27T21:47:26.637Z,9.17
2023-04-27T21:49:53.564Z,9.10
2023-04-27T21:52:21.651Z,9.09
2023-04-27T21:54:48.624Z,9.11
2023-04-27T21:57:16.585Z,9.09
2023-04-27T21:59:44.578Z,9.08
2023-04-27T22:02:11.522Z,9.12
2023-04-27T22:04:39.262Z,9.16
2023-04-27T22:07:07.924Z,9.18
2023-04-27T22:09:35.852Z,9.18
2023-04-27T22:12:05.830Z,9.15
2023-04-27T22:14:32.624Z,9.08
2023-04-27T22:17:00.922Z,9.05
2023-04-27T22:19:28.893Z,9.05
2023-04-27T22:21:55.823Z,9.06
2023-04-27T22:24:22.645Z,9.07
2023-04-27T22:26:49.552Z,9.07
2023-04-27T22:29:16.345Z,9.07
2023-04-27T22:31:43.490Z,9.05
2023-04-27T22:34:11.530Z,9.04
2023-04-27T22:36:38.520Z,9.02
2023-04-27T22:39:05.626Z,9.01
2023-04-27T22:41:32.531Z,8.98
2023-04-27T22:43:59.368Z,8.93
2023-04-27T22:46:26.266Z,8.92
2023-04-27T22:48:53.982Z,8.91
2023-04-27T22:51:21.863Z,8.91
2023-04-27T22:53:48.787Z,8.93
2023-04-27T22:56:15.656Z,8.91
2023-04-27T22:58:42.415Z,8.89
2023-04-27T23:01:09.221Z,8.86
2023-04-27T23:03:36.572Z,8.81
2023-04-27T23:06:05.229Z,8.79
2023-04-27T23:08:32.102Z,8.77
2023-04-27T23:10:58.982Z,8.80
2023-04-27T23:13:27.730Z,8.82
2023-04-27T23:15:54.711Z,8.85
2023-04-27T23:18:21.587Z,8.87
2023-04-27T23:20:52.514Z,8.87
2023-04-27T23:23:19.235Z,8.85
2023-04-27T23:25:45.921Z,8.85
2023-04-27T23:28:12.810Z,8.87
2023-04-27T23:30:39.704Z,8.88
2023-04-27T23:33:07.006Z,8.88
2023-04-27T23:35:34.178Z,8.90
2023-04-27T23:38:01.313Z,8.94
2023-04-27T23:40:28.031Z,8.95
2023-04-27T23:42:55.860Z,8.91
2023-04-27T23:45:22.746Z,8.90
2023-04-27T23:47:49.521Z,8.91
2023-04-27T23:50:16.690Z,8.93
2023-04-27T23:52:43.488Z,8.95
2023-04-27T23:55:10.552Z,8.95
2023-04-27T23:57:37.585Z,8.94
